Time;durP1;ratioP1;P1;durP2;ratioP2;P2;SDS_P1;SDS_P2;PMS_P1;PMS_P2;Temp;Humidity;BMP_temperature;BMP_pressure;BME280_temperature;BME280_humidity;BME280_pressure;Samples;Min_cycle;Max_cycle;Signal;HPM_P1;HPM_P2
2023/12/22 05:33:07;;;;;;;;;0.00;0.00;;;;;19.79;48.83;101065.84;5041192;28;45488;-75
2023/12/22 05:35:32;;;;;;;;;0.00;0.00;;;;;20.00;48.86;101077.72;5045116;28;49342;-76
2023/12/22 05:37:58;;;;;;;;;0.75;0.75;;;;;19.88;48.83;101069.69;5036263;28;65196;-76
2023/12/22 05:40:23;;;;;;;;;0.00;0.00;;;;;19.79;48.91;101073.13;5036109;28;61701;-75
2023/12/22 05:42:48;;;;;;;;;0.00;0.00;;;;;20.08;48.34;101076.22;5036247;28;45459;-75
2023/12/22 05:45:14;;;;;;;;;0.00;0.00;;;;;20.10;48.34;101069.69;5036500;28;45428;-75
2023/12/22 05:47:40;;;;;;;;;1.00;0.00;;;;;20.03;48.30;101063.88;5036604;28;45453;-76
2023/12/22 05:50:06;;;;;;;;;0.00;0.00;;;;;20.07;48.73;101075.41;5036398;28;45242;-75
2023/12/22 05:52:32;;;;;;;;;0.00;0.00;;;;;19.96;48.80;101070.81;5036440;28;45520;-75
2023/12/22 05:54:58;;;;;;;;;0.00;0.00;;;;;20.04;48.83;101067.47;5036671;28;45241;-75
2023/12/22 05:57:25;;;;;;;;;2.25;0.00;;;;;20.20;48.59;101075.25;5042072;28;45510;-77
2023/12/22 05:59:50;;;;;;;;;0.50;0.00;;;;;19.96;48.66;101057.19;5032449;28;46336;-76
2023/12/22 06:02:16;;;;;;;;;0.00;0.00;;;;;19.97;49.21;101080.72;5032585;28;48461;-75
2023/12/22 06:04:41;;;;;;;;;0.00;0.00;;;;;19.80;49.42;101058.53;5034144;28;45459;-75
2023/12/22 06:07:06;;;;;;;;;0.00;0.00;;;;;20.14;49.03;101073.91;5034850;28;45431;-74
2023/12/22 06:09:32;;;;;;;;;0.00;0.00;;;;;19.81;49.51;101072.03;5035553;28;45393;-74
2023/12/22 06:11:57;;;;;;;;;4.00;0.00;;;;;19.90;49.73;101067.72;5035983;28;48339;-76
2023/12/22 06:14:23;;;;;;;;;1.50;0.00;;;;;20.16;49.04;101069.19;5033876;28;45581;-76
2023/12/22 06:16:48;;;;;;;;;1.00;0.00;;;;;19.92;49.33;101082.91;5034900;28;47617;-74
2023/12/22 06:19:13;;;;;;;;;0.00;0.00;;;;;19.57;50.37;101063.06;5035542;28;62465;-75
2023/12/22 06:21:39;;;;;;;;;0.25;0.25;;;;;19.71;49.90;101073.75;5035893;28;45397;-75
2023/12/22 06:24:05;;;;;;;;;0.00;0.00;;;;;19.62;50.41;101061.72;5035898;28;45989;-75
2023/12/22 06:26:31;;;;;;;;;1.00;1.00;;;;;19.60;50.20;101082.72;5035703;28;45712;-74
2023/12/22 06:28:56;;;;;;;;;0.00;0.00;;;;;19.95;49.51;101088.13;5049951;28;48078;-74
2023/12/22 06:31:22;;;;;;;;;0.00;0.00;;;;;20.20;48.96;101095.19;5033714;28;45564;-75
2023/12/22 06:33:48;;;;;;;;;2.75;0.00;;;;;20.14;49.31;101108.44;5036256;28;45399;-75
2023/12/22 06:36:24;;;;;;;;;0.00;0.00;;;;;20.27;48.95;101093.69;5035665;28;45524;-75
2023/12/22 06:38:51;;;;;;;;;1.00;1.00;;;;;20.20;48.74;101075.25;5035780;28;46361;-76
2023/12/22 06:41:26;;;;;;;;;0.00;0.00;;;;;20.20;48.87;101077.97;5035109;28;45564;-74
2023/12/22 06:43:51;;;;;;;;;1.00;1.00;;;;;20.17;48.86;101070.91;5035447;28;45365;-75
2023/12/22 06:46:26;;;;;;;;;0.25;0.25;;;;;20.32;48.66;101071.56;5034626;28;45629;-75
2023/12/22 06:48:53;;;;;;;;;0.00;0.00;;;;;20.26;48.77;101069.31;5035287;28;46379;-74
2023/12/22 06:51:23;;;;;;;;;0.00;0.00;;;;;20.34;48.38;101075.03;5034874;28;45398;-75
2023/12/22 06:53:50;;;;;;;;;2.00;0.50;;;;;20.31;48.64;101070.69;5034184;28;45380;-74
2023/12/22 06:56:20;;;;;;;;;1.50;0.00;;;;;19.82;49.43;101073.72;5033392;28;45423;-75
2023/12/22 06:58:48;;;;;;;;;0.75;0.75;;;;;19.76;49.98;101067.91;5041413;28;47397;-74
2023/12/22 07:01:28;;;;;;;;;2.00;1.00;;;;;19.72;50.00;101069.16;5034883;28;45336;-76
2023/12/22 07:03:54;;;;;;;;;4.00;1.00;;;;;19.61;50.32;101079.03;5035265;28;45418;-75
2023/12/22 07:06:21;;;;;;;;;0.00;0.00;;;;;19.81;50.05;101066.59;5034835;28;45862;-74
2023/12/22 07:09:14;;;;;;;;;2.25;1.00;;;;;20.02;49.85;101059.41;5034292;28;46160;-82
2023/12/22 07:11:44;;;;;;;;;0.75;0.75;;;;;20.05;49.40;101054.72;5035027;28;45373;-79
2023/12/22 07:14:09;;;;;;;;;0.00;0.00;;;;;20.14;49.51;101052.13;5035485;28;45349;-80
2023/12/22 07:16:35;;;;;;;;;0.00;0.00;;;;;20.01;49.60;101065.84;5034117;28;45500;-76
2023/12/22 07:19:07;;;;;;;;;1.50;0.00;;;;;19.88;49.84;101051.50;5035072;28;45391;-78
2023/12/22 07:21:32;;;;;;;;;0.25;0.25;;;;;19.92;49.91;101058.41;5035296;28;45208;-80
2023/12/22 07:24:00;;;;;;;;;1.75;0.00;;;;;20.09;49.63;101073.41;5033601;28;45373;-81
2023/12/22 07:26:26;;;;;;;;;0.00;0.00;;;;;19.90;49.60;101065.84;5034628;28;45379;-78
2023/12/22 07:28:52;;;;;;;;;1.50;1.00;;;;;19.92;49.38;101047.53;5034020;28;45511;-81
2023/12/22 07:31:17;;;;;;;;;0.00;0.00;;;;;19.77;49.18;101075.97;5040626;28;46151;-81
2023/12/22 07:33:43;;;;;;;;;0.50;0.00;;;;;20.03;48.77;101071.19;5053578;28;45762;-77
2023/12/22 07:36:08;;;;;;;;;3.25;1.00;;;;;19.99;48.92;101058.78;5054794;28;45402;-80
2023/12/22 07:38:34;;;;;;;;;2.75;0.00;;;;;20.14;48.87;101084.78;5054719;28;45886;-76
2023/12/22 07:40:59;;;;;;;;;2.50;0.00;;;;;20.05;48.85;101093.69;5053898;28;45453;-77
2023/12/22 07:43:25;;;;;;;;;2.00;0.00;;;;;20.14;49.07;101089.38;5034969;28;45815;-76
2023/12/22 07:45:51;;;;;;;;;1.00;0.00;;;;;20.08;49.57;101106.19;5046680;28;45494;-76
2023/12/22 07:48:17;;;;;;;;;1.00;1.00;;;;;20.16;49.78;101106.47;5036242;28;47958;-77
2023/12/22 07:50:42;;;;;;;;;2.00;0.00;;;;;20.17;49.96;101110.88;5053044;28;45377;-78
2023/12/22 07:53:08;;;;;;;;;0.75;0.75;;;;;20.13;49.91;101114.84;5054556;28;45515;-78
2023/12/22 07:55:34;;;;;;;;;1.00;1.00;;;;;20.06;50.15;101119.94;5053365;28;45527;-78
2023/12/22 07:57:59;;;;;;;;;0.00;0.00;;;;;20.28;50.30;101111.78;5054683;28;45387;-76
2023/12/22 08:00:24;;;;;;;;;0.50;0.00;;;;;20.25;50.11;101122.03;5054128;28;45485;-79
2023/12/22 08:02:50;;;;;;;;;2.25;0.00;;;;;20.24;50.17;101104.84;5036249;28;45297;-77
2023/12/22 08:05:15;;;;;;;;;0.00;0.00;;;;;20.05;50.86;101115.47;5054087;28;45566;-79
2023/12/22 08:07:41;;;;;;;;;0.00;0.00;;;;;20.07;50.79;101123.53;5054370;28;45443;-79
2023/12/22 08:10:06;;;;;;;;;0.25;0.25;;;;;20.01;51.06;101100.38;5053561;28;45526;-76
2023/12/22 08:12:33;;;;;;;;;0.00;0.00;;;;;20.14;50.70;101128.34;5034757;28;45522;-78
2023/12/22 08:14:58;;;;;;;;;1.50;0.00;;;;;19.91;51.43;101132.00;5053457;28;45411;-79
2023/12/22 08:17:24;;;;;;;;;1.00;1.00;;;;;20.10;51.00;101128.69;5052379;28;53363;-78
2023/12/22 08:19:49;;;;;;;;;1.00;1.00;;;;;20.33;50.56;101146.81;5052628;28;52513;-76
2023/12/22 08:22:15;;;;;;;;;0.00;0.00;;;;;20.26;50.86;101135.53;5052430;28;45338;-77
2023/12/22 08:24:41;;;;;;;;;0.00;0.00;;;;;20.27;50.71;101136.38;5054050;28;45282;-78
2023/12/22 08:27:07;;;;;;;;;0.00;0.00;;;;;20.19;50.94;101137.00;5054039;28;45849;-78
2023/12/22 08:29:32;;;;;;;;;0.00;0.00;;;;;20.19;50.57;101152.47;5053403;28;45563;-77
2023/12/22 08:31:58;;;;;;;;;0.00;0.00;;;;;20.35;50.22;101151.16;5054113;28;45298;-78
2023/12/22 08:34:24;;;;;;;;;2.50;0.00;;;;;20.14;50.41;101149.25;5053466;28;45547;-77
2023/12/22 08:36:49;;;;;;;;;1.00;1.00;;;;;20.07;50.44;101118.09;5054264;28;45499;-77
2023/12/22 08:39:14;;;;;;;;;1.50;1.00;;;;;20.19;50.11;101136.13;5054197;28;45233;-76
2023/12/22 08:41:40;;;;;;;;;0.00;0.00;;;;;20.22;49.97;101136.78;5049709;28;45454;-77
2023/12/22 08:44:06;;;;;;;;;1.00;1.00;;;;;20.12;49.87;101113.13;5034292;28;45506;-75
2023/12/22 08:46:32;;;;;;;;;2.00;0.00;;;;;20.33;49.58;101122.31;5053996;28;45400;-78
2023/12/22 08:48:59;;;;;;;;;0.00;0.00;;;;;20.43;49.55;101136.06;5053703;28;45841;-78
2023/12/22 08:51:25;;;;;;;;;0.00;0.00;;;;;20.17;50.02;101144.41;5054802;28;45525;-77
2023/12/22 08:53:52;;;;;;;;;0.75;0.00;;;;;20.21;49.87;101142.34;5057775;28;45320;-77
2023/12/22 08:56:17;;;;;;;;;0.00;0.00;;;;;20.15;50.29;101140.97;5057707;28;45489;-80
2023/12/22 08:58:43;;;;;;;;;0.50;0.25;;;;;20.05;50.53;101139.97;5057124;28;45460;-80
2023/12/22 09:01:14;;;;;;;;;0.00;0.00;;;;;20.30;49.89;101108.94;5057781;28;45314;-78
2023/12/22 09:03:44;;;;;;;;;0.00;0.00;;;;;20.48;49.36;101109.31;5057281;28;45375;-79
2023/12/22 09:06:10;;;;;;;;;1.75;1.00;;;;;20.48;49.78;101155.63;5056377;28;45365;-78
2023/12/22 09:08:35;;;;;;;;;2.00;0.00;;;;;20.10;49.99;101169.53;5057036;28;45355;-81
2023/12/22 09:11:01;;;;;;;;;3.50;0.50;;;;;20.42;48.96;101150.66;5057501;28;45551;-76
2023/12/22 09:13:26;;;;;;;;;0.25;0.25;;;;;20.34;48.59;101149.41;5058435;28;45384;-84
2023/12/22 09:15:51;;;;;;;;;0.00;0.00;;;;;20.38;48.61;101141.88;5060858;28;46526;-84
2023/12/22 09:18:17;;;;;;;;;1.00;0.75;;;;;20.43;48.59;101147.81;5058554;28;45528;-74
2023/12/22 09:20:42;;;;;;;;;0.50;0.50;;;;;20.60;48.28;101150.03;5057121;28;47428;-75
2023/12/22 09:23:10;;;;;;;;;0.00;0.00;;;;;20.50;47.50;101151.78;5057748;28;45289;-78
2023/12/22 09:25:35;;;;;;;;;0.25;0.00;;;;;20.59;47.48;101153.75;5057004;28;46014;-76
2023/12/22 09:28:01;;;;;;;;;0.00;0.00;;;;;20.54;47.56;101161.44;5057784;28;45512;-80
2023/12/22 09:30:26;;;;;;;;;1.75;1.00;;;;;20.56;47.62;101154.03;5053060;28;45218;-78
2023/12/22 09:32:52;;;;;;;;;1.75;1.00;;;;;20.53;47.97;101173.31;5047225;28;45614;-75
2023/12/22 09:35:17;;;;;;;;;0.00;0.00;;;;;20.59;48.70;101177.41;5070362;28;46602;-79
2023/12/22 09:37:43;;;;;;;;;1.50;0.00;;;;;20.47;48.64;101170.25;5067170;28;45385;-76
2023/12/22 09:40:10;;;;;;;;;0.00;0.00;;;;;20.30;49.38;101166.09;5059547;28;45457;-76
2023/12/22 09:42:39;;;;;;;;;1.50;0.50;;;;;20.55;49.28;101187.69;5043345;28;46179;-78
2023/12/22 09:45:07;;;;;;;;;2.25;0.00;;;;;19.99;50.10;101163.06;5047425;28;45398;-78
2023/12/22 09:47:35;;;;;;;;;0.25;0.00;;;;;20.27;49.75;101185.41;5054081;28;45391;-80
2023/12/22 09:50:01;;;;;;;;;0.50;0.00;;;;;20.33;49.34;101174.88;5057587;28;45492;-79
2023/12/22 09:52:29;;;;;;;;;0.50;0.00;;;;;20.49;49.51;101180.03;5056291;28;45582;-77
2023/12/22 09:54:55;;;;;;;;;1.00;0.00;;;;;20.66;48.69;101206.78;5058144;28;46248;-80
2023/12/22 09:57:23;;;;;;;;;2.00;0.00;;;;;20.59;48.60;101197.34;5056864;28;45825;-79
2023/12/22 09:59:52;;;;;;;;;0.00;0.00;;;;;20.66;48.28;101186.84;5056548;28;45366;-79
2023/12/22 10:02:17;;;;;;;;;0.00;0.00;;;;;20.60;49.04;101187.31;5057548;28;45545;-80
2023/12/22 10:04:43;;;;;;;;;0.00;0.00;;;;;20.54;48.93;101190.53;5043831;28;46117;-79
2023/12/22 10:07:13;;;;;;;;;0.00;0.00;;;;;20.28;49.38;101193.47;5055157;28;45680;-77
2023/12/22 10:09:39;;;;;;;;;0.00;0.00;;;;;20.30;49.15;101185.16;5050176;28;45373;-80
2023/12/22 10:12:07;;;;;;;;;2.00;0.00;;;;;20.38;48.48;101170.00;5037399;28;45427;-79
2023/12/22 10:14:35;;;;;;;;;1.75;0.00;;;;;20.71;47.68;101176.41;5056268;28;45532;-78
2023/12/22 10:17:01;;;;;;;;;0.00;0.00;;;;;20.63;47.07;101187.94;5056328;28;45182;-80
2023/12/22 10:19:26;;;;;;;;;0.00;0.00;;;;;20.73;47.07;101186.22;5057523;28;45232;-78
2023/12/22 10:21:52;;;;;;;;;0.00;0.00;;;;;20.62;47.32;101164.41;5054552;28;45332;-79
2023/12/22 10:24:43;;;;;;;;;0.00;0.00;;;;;20.68;46.89;101185.69;5056899;28;45276;-79
2023/12/22 10:27:09;;;;;;;;;0.00;0.00;;;;;20.56;47.25;101175.81;5048433;28;45464;-79
2023/12/22 10:29:35;;;;;;;;;0.00;0.00;;;;;20.65;46.62;101183.25;5056181;28;45512;-79
2023/12/22 10:32:04;;;;;;;;;0.00;0.00;;;;;20.78;46.70;101197.59;5053867;28;45303;-78
2023/12/22 10:34:31;;;;;;;;;3.50;1.00;;;;;20.80;46.82;101172.06;5055676;28;45423;-80
2023/12/22 10:36:57;;;;;;;;;0.00;0.00;;;;;20.94;46.29;101188.16;5053000;28;45645;-79
2023/12/22 10:39:22;;;;;;;;;0.00;0.00;;;;;20.49;46.79;101166.41;5055835;28;45401;-79
2023/12/22 10:41:51;;;;;;;;;0.00;0.00;;;;;20.33;47.38;101171.31;5049734;28;45585;-78
2023/12/22 10:44:20;;;;;;;;;1.00;1.00;;;;;20.62;47.75;101188.06;5038172;28;45371;-79
2023/12/22 10:46:47;;;;;;;;;0.00;0.00;;;;;20.36;47.92;101195.59;5052718;28;45526;-78
2023/12/22 10:49:12;;;;;;;;;0.50;0.50;;;;;20.78;47.57;101188.53;5053113;28;45331;-79
2023/12/22 10:51:38;;;;;;;;;0.25;0.25;;;;;20.74;47.36;101165.28;5055215;28;51744;-79
2023/12/22 10:54:05;;;;;;;;;0.00;0.00;;;;;20.82;47.35;101178.28;5054903;28;45585;-78
2023/12/22 10:56:31;;;;;;;;;2.00;0.00;;;;;20.80;47.10;101169.34;5055580;28;45494;-78
2023/12/22 10:58:58;;;;;;;;;0.00;0.00;;;;;20.87;47.59;101168.72;5036238;28;45348;-77
2023/12/22 11:01:35;;;;;;;;;1.75;1.00;;;;;20.79;47.94;101163.03;5055460;28;45327;-78
2023/12/22 11:04:05;;;;;;;;;0.00;0.00;;;;;20.81;46.81;101158.34;5054032;28;45514;-80
2023/12/22 11:06:34;;;;;;;;;6.25;1.00;;;;;20.78;47.17;101140.38;5055174;28;45433;-80
2023/12/22 11:09:05;;;;;;;;;3.00;0.00;;;;;20.73;47.21;101150.78;5054737;28;45388;-79
2023/12/22 11:11:33;;;;;;;;;2.00;1.00;;;;;20.76;47.84;101163.28;5055474;28;45423;-81
2023/12/22 11:14:03;;;;;;;;;0.00;0.00;;;;;20.56;48.37;101161.31;5036995;28;47086;-79
2023/12/22 11:16:29;;;;;;;;;2.75;0.00;;;;;20.33;49.17;101165.88;5054171;28;45465;-80
2023/12/22 11:18:56;;;;;;;;;2.50;0.00;;;;;20.65;48.56;101152.41;5055487;28;45499;-81
2023/12/22 11:21:22;;;;;;;;;0.00;0.00;;;;;20.71;47.92;101130.97;5054545;28;45390;-79
2023/12/22 11:23:49;;;;;;;;;2.00;1.00;;;;;20.56;48.42;101132.22;5055427;28;45993;-80
2023/12/22 11:26:16;;;;;;;;;0.75;0.75;;;;;20.44;48.59;101111.41;5053310;28;45328;-79
2023/12/22 11:28:44;;;;;;;;;5.25;1.50;;;;;20.46;48.82;101146.72;5055214;28;45470;-79
2023/12/22 11:31:10;;;;;;;;;1.50;1.50;;;;;20.51;48.19;101139.03;5053838;28;45534;-78
2023/12/22 11:33:37;;;;;;;;;1.50;1.00;;;;;20.29;47.93;101107.19;5054423;28;45941;-78
2023/12/22 11:36:04;;;;;;;;;1.75;1.50;;;;;20.38;47.68;101111.94;5052387;28;45901;-80
2023/12/22 11:38:31;;;;;;;;;1.75;1.75;;;;;20.62;47.13;101148.06;5054882;28;45369;-79
2023/12/22 11:41:00;;;;;;;;;3.00;0.50;;;;;20.71;47.03;101147.31;5037071;28;45426;-78
2023/12/22 11:43:26;;;;;;;;;2.00;0.00;;;;;20.36;46.53;101144.72;5043409;28;45481;-79
2023/12/22 11:45:52;;;;;;;;;3.00;1.75;;;;;20.43;46.92;101145.09;5050854;28;45282;-79
2023/12/22 11:48:17;;;;;;;;;0.00;0.00;;;;;20.35;46.52;101153.88;5053797;28;45272;-79
2023/12/22 11:50:44;;;;;;;;;1.75;1.00;;;;;20.40;46.76;101164.41;5054735;28;45435;-78
2023/12/22 11:53:20;;;;;;;;;1.00;1.00;;;;;19.98;47.30;101172.25;5054991;28;46409;-79
2023/12/22 11:56:08;;;;;;;;;2.00;1.00;;;;;20.33;47.24;101164.00;5055342;28;45530;-78
2023/12/22 11:58:50;;;;;;;;;4.00;1.00;;;;;20.32;47.44;101164.13;5054390;28;45393;-79
2023/12/22 12:01:18;;;;;;;;;1.50;1.50;;;;;20.46;46.94;101180.25;5055991;28;46001;-79
2023/12/22 12:03:59;;;;;;;;;4.00;0.75;;;;;20.48;47.02;101181.00;5054042;28;45423;-79
2023/12/22 12:06:30;;;;;;;;;3.00;1.50;;;;;20.32;47.39;101181.34;5047841;28;45342;-78
2023/12/22 12:08:56;;;;;;;;;4.00;1.00;;;;;20.25;47.67;101174.63;5055202;28;45514;-78
2023/12/22 12:11:23;;;;;;;;;2.50;1.00;;;;;20.46;47.00;101172.09;5054368;28;45175;-77
2023/12/22 12:13:50;;;;;;;;;2.00;1.75;;;;;20.23;47.00;101170.31;5054924;28;45500;-78
2023/12/22 12:16:23;;;;;;;;;2.00;2.00;;;;;19.73;47.11;101137.06;5055679;28;45459;-79
2023/12/22 12:18:50;;;;;;;;;1.00;0.00;;;;;20.23;46.61;101181.22;5055590;28;45423;-79
2023/12/22 12:21:16;;;;;;;;;4.25;3.75;;;;;20.27;46.13;101174.50;5053781;28;45238;-78
2023/12/22 12:23:42;;;;;;;;;5.00;2.00;;;;;20.28;45.88;101168.09;5055879;28;46346;-80
2023/12/22 12:26:08;;;;;;;;;4.25;4.00;;;;;20.50;45.35;101159.09;5045603;28;45280;-80
2023/12/22 12:28:35;;;;;;;;;11.25;3.25;;;;;20.39;44.84;101179.03;5058060;28;45449;-77
2023/12/22 12:31:06;;;;;;;;;2.00;2.00;;;;;20.32;45.25;101183.19;5058236;28;45456;-79
2023/12/22 12:33:32;;;;;;;;;2.75;2.00;;;;;20.45;45.01;101180.38;5059106;28;45363;-79
2023/12/22 12:35:59;;;;;;;;;5.75;3.00;;;;;20.52;44.96;101163.41;5058596;28;45569;-77
2023/12/22 12:38:42;;;;;;;;;2.50;1.00;;;;;20.71;45.00;101176.41;5059371;28;45414;-80
2023/12/22 12:41:09;;;;;;;;;4.50;2.00;;;;;20.65;44.79;101171.47;5058397;28;45336;-78
2023/12/22 12:43:36;;;;;;;;;2.25;2.25;;;;;20.28;45.04;101187.13;5038243;28;46190;-80
2023/12/22 12:46:05;;;;;;;;;3.00;1.50;;;;;20.47;44.96;101192.91;5056291;28;45497;-80
2023/12/22 12:48:31;;;;;;;;;2.75;1.00;;;;;20.19;44.85;101182.41;5058856;28;45358;-79
2023/12/22 12:51:04;;;;;;;;;3.50;1.00;;;;;20.39;44.14;101157.25;5058147;28;45544;-78
2023/12/22 12:53:32;;;;;;;;;3.25;1.75;;;;;20.27;44.02;101177.22;5058721;28;45296;-79
2023/12/22 12:55:58;;;;;;;;;1.50;1.50;;;;;19.76;44.56;101163.13;5058399;28;45316;-78
2023/12/22 12:58:32;;;;;;;;;3.50;0.75;;;;;20.10;44.04;101191.31;5059019;28;45456;-78
2023/12/22 13:01:11;;;;;;;;;7.00;2.75;;;;;20.11;44.00;101172.16;5058781;28;45335;-79
2023/12/22 13:03:53;;;;;;;;;3.00;2.00;;;;;20.48;43.45;101153.78;5058245;28;45288;-79
2023/12/22 13:06:18;;;;;;;;;3.75;2.75;;;;;20.51;43.18;101164.41;5058316;28;45458;-80
2023/12/22 13:08:50;;;;;;;;;5.00;3.25;;;;;20.48;42.92;101142.00;5058139;28;45308;-77
2023/12/22 13:11:24;;;;;;;;;3.50;2.25;;;;;20.65;42.56;101152.41;5058294;28;45224;-79
2023/12/22 13:13:50;;;;;;;;;2.75;2.75;;;;;20.69;42.65;101149.28;5057381;28;45390;-76
2023/12/22 13:16:30;;;;;;;;;6.25;3.75;;;;;20.75;41.84;101153.41;5057835;28;45224;-77
2023/12/22 13:18:57;;;;;;;;;4.75;2.25;;;;;20.51;41.68;101158.97;5057470;28;45402;-78
2023/12/22 13:21:24;;;;;;;;;4.00;2.50;;;;;20.71;41.54;101169.13;5056447;28;45312;-77
2023/12/22 13:24:07;;;;;;;;;4.25;3.00;;;;;20.58;41.99;101173.84;5044960;28;46297;-79
2023/12/22 13:26:33;;;;;;;;;1.50;0.75;;;;;20.53;41.52;101151.53;5058082;28;45485;-78
2023/12/22 13:28:59;;;;;;;;;4.00;2.75;;;;;20.68;41.90;101163.91;5055845;28;45279;-77
2023/12/22 13:31:25;;;;;;;;;5.00;1.00;;;;;20.66;41.62;101156.88;5057353;28;45404;-78
2023/12/22 13:33:51;;;;;;;;;2.00;2.00;;;;;20.55;41.44;101132.34;5057643;28;46293;-79
2023/12/22 13:36:16;;;;;;;;;2.00;2.00;;;;;20.43;42.08;101152.41;5057472;28;45428;-79
2023/12/22 13:38:47;;;;;;;;;2.75;2.00;;;;;20.66;42.00;101151.41;5058211;28;45470;-77
2023/12/22 13:41:12;;;;;;;;;2.75;2.00;;;;;20.47;41.90;101118.50;5056517;28;45331;-78
2023/12/22 13:43:37;;;;;;;;;4.00;2.00;;;;;20.85;41.36;101165.25;5046911;28;45487;-78
2023/12/22 13:46:03;;;;;;;;;2.75;2.00;;;;;20.80;41.56;101161.19;5056573;28;45270;-78
2023/12/22 13:48:29;;;;;;;;;3.25;1.00;;;;;20.59;41.36;101142.84;5055670;28;45492;-81
2023/12/22 13:50:58;;;;;;;;;4.00;1.75;;;;;20.66;41.92;101167.78;5054063;28;45324;-76
2023/12/22 13:53:24;;;;;;;;;3.50;1.25;;;;;20.79;41.58;101173.94;5056685;28;46472;-78
2023/12/22 13:55:59;;;;;;;;;1.00;1.00;;;;;20.78;41.57;101156.72;5055084;28;45915;-77
2023/12/22 13:58:26;;;;;;;;;1.75;1.75;;;;;20.67;41.39;101175.78;5056557;28;45406;-78
2023/12/22 14:00:52;;;;;;;;;2.25;1.75;;;;;20.59;41.49;101175.53;5055961;28;45347;-78
2023/12/22 14:03:21;;;;;;;;;5.50;3.25;;;;;20.67;41.51;101155.88;5056082;28;45374;-81
2023/12/22 14:05:49;;;;;;;;;3.00;0.00;;;;;20.56;40.61;101154.03;5056101;28;45399;-77
2023/12/22 14:08:15;;;;;;;;;3.50;1.00;;;;;20.79;41.21;101171.22;5054750;28;45386;-76
2023/12/22 14:10:50;;;;;;;;;3.50;2.25;;;;;20.92;41.24;101160.19;5056133;28;45317;-80
2023/12/22 14:13:15;;;;;;;;;1.50;1.50;;;;;20.62;41.75;101175.31;5055527;28;46042;-78
2023/12/22 14:15:44;;;;;;;;;4.50;1.00;;;;;20.17;42.04;101165.34;5056013;28;45426;-75
2023/12/22 14:18:10;;;;;;;;;2.00;2.00;;;;;20.55;41.54;101163.19;5055283;28;45425;-78
2023/12/22 14:20:35;;;;;;;;;2.50;2.00;;;;;20.65;41.50;101175.06;5056047;28;45572;-76
2023/12/22 14:23:00;;;;;;;;;4.75;0.00;;;;;20.64;41.53;101170.63;5038299;28;47377;-78
2023/12/22 14:25:27;;;;;;;;;1.50;1.50;;;;;20.41;41.68;101154.41;5055542;28;48802;-78
2023/12/22 14:27:56;;;;;;;;;1.00;1.00;;;;;20.34;42.20;101163.03;5034728;28;45356;-80
2023/12/22 14:30:22;;;;;;;;;3.00;1.75;;;;;20.35;42.27;101181.13;5048634;28;45581;-78
2023/12/22 14:32:47;;;;;;;;;1.50;1.00;;;;;20.19;42.55;101183.28;5019400;28;48560;-78
2023/12/22 14:35:13;;;;;;;;;2.75;1.00;;;;;20.40;42.86;101169.88;5015104;28;50036;-80
2023/12/22 14:37:38;;;;;;;;;1.00;1.00;;;;;20.23;43.24;101164.88;5015301;28;49418;-81
2023/12/22 14:40:04;;;;;;;;;0.00;0.00;;;;;20.03;44.00;101177.31;5014892;28;52206;-79
2023/12/22 14:42:29;;;;;;;;;3.25;2.00;;;;;20.04;43.79;101184.50;5015353;28;45566;-77
2023/12/22 14:44:55;;;;;;;;;4.50;1.75;;;;;20.14;43.75;101190.09;5015561;28;45186;-78
2023/12/22 14:47:20;;;;;;;;;4.00;2.00;;;;;20.07;44.05;101194.28;5019188;28;50481;-78
2023/12/22 14:49:45;;;;;;;;;4.50;2.75;;;;;20.17;43.84;101209.75;5014766;28;46037;-79
2023/12/22 14:52:10;;;;;;;;;3.50;1.00;;;;;19.97;43.83;101207.75;5014883;28;52341;-80
2023/12/22 14:54:36;;;;;;;;;4.00;1.00;;;;;19.88;44.02;101205.75;5015178;28;58806;-79
2023/12/22 14:57:01;;;;;;;;;2.75;1.00;;;;;19.87;43.71;101210.31;5015231;28;45384;-76
2023/12/22 14:59:27;;;;;;;;;1.00;1.00;;;;;19.90;43.87;101223.69;5015267;28;45418;-78
2023/12/22 15:01:52;;;;;;;;;2.00;2.00;;;;;19.88;43.60;101208.47;5015052;28;45476;-78
2023/12/22 15:04:18;;;;;;;;;8.75;1.25;;;;;19.76;44.22;101199.38;5015446;28;45426;-78
2023/12/22 15:06:46;;;;;;;;;3.50;2.75;;;;;19.83;43.46;101197.03;5014020;28;45265;-78
2023/12/22 15:09:11;;;;;;;;;1.00;1.00;;;;;20.03;43.77;101218.16;5014749;28;45515;-75
2023/12/22 15:11:46;;;;;;;;;2.00;1.00;;;;;19.89;43.76;101237.41;5015567;28;46027;-76
2023/12/22 15:14:12;;;;;;;;;5.75;2.75;;;;;20.12;43.61;101241.06;5015711;28;45482;-77
2023/12/22 15:16:46;;;;;;;;;1.00;1.00;;;;;20.15;43.30;101241.72;5020592;28;45456;-77
2023/12/22 15:19:12;;;;;;;;;4.50;2.25;;;;;20.30;43.30;101247.81;5018968;28;45256;-76
2023/12/22 15:21:38;;;;;;;;;1.75;1.50;;;;;20.06;43.25;101239.69;5023339;28;46039;-77
2023/12/22 15:24:04;;;;;;;;;5.00;3.25;;;;;19.82;43.80;101247.88;5015964;28;45217;-76
2023/12/22 15:26:30;;;;;;;;;3.25;2.00;;;;;20.08;43.63;101255.88;5015075;28;45241;-79
2023/12/22 15:28:55;;;;;;;;;5.50;2.00;;;;;20.09;43.25;101277.56;5014241;28;45937;-76
2023/12/22 15:31:21;;;;;;;;;2.00;2.00;;;;;20.10;43.42;101254.78;5030849;28;45906;-75
2023/12/22 15:33:46;;;;;;;;;3.00;2.25;;;;;19.71;44.37;101277.78;5046958;28;46397;-74
2023/12/22 15:36:24;;;;;;;;;2.00;1.25;;;;;19.75;44.31;101257.50;5054657;28;45532;-76
2023/12/22 15:38:50;;;;;;;;;8.25;5.50;;;;;19.89;44.54;101246.44;5054759;28;45339;-76
2023/12/22 15:41:18;;;;;;;;;5.75;2.25;;;;;19.94;44.13;101268.72;5053290;28;45563;-77
2023/12/22 15:43:43;;;;;;;;;6.50;2.00;;;;;19.99;44.26;101282.81;5034467;28;45593;-74
2023/12/22 15:46:12;;;;;;;;;7.50;2.00;;;;;19.77;44.23;101271.84;5053059;28;45514;-74
2023/12/22 15:48:38;;;;;;;;;3.00;2.00;;;;;19.76;44.62;101274.69;5054399;28;45363;-75
2023/12/22 15:51:07;;;;;;;;;2.00;2.00;;;;;19.84;44.12;101264.97;5054664;28;46287;-77
2023/12/22 15:53:36;;;;;;;;;3.00;1.00;;;;;19.61;44.83;101293.03;5054599;28;45486;-76
2023/12/22 15:56:06;;;;;;;;;9.50;8.00;;;;;19.77;44.51;101293.63;5054205;28;45338;-79
2023/12/22 15:58:32;;;;;;;;;7.75;3.00;;;;;19.78;44.33;101302.66;5053985;28;45556;-77
2023/12/22 16:00:57;;;;;;;;;3.25;3.25;;;;;19.62;44.99;101301.09;5053687;28;45403;-75
2023/12/22 16:03:22;;;;;;;;;3.00;1.75;;;;;19.71;44.76;101304.97;5054256;28;45497;-75
2023/12/22 16:05:48;;;;;;;;;3.25;2.00;;;;;19.43;45.08;101311.56;5054645;28;45317;-82
2023/12/22 16:08:13;;;;;;;;;6.75;2.50;;;;;19.35;45.12;101313.97;5053293;28;45307;-77
2023/12/22 16:10:39;;;;;;;;;5.50;2.25;;;;;19.38;45.14;101332.81;5054019;28;46210;-74
2023/12/22 16:13:06;;;;;;;;;2.25;1.50;;;;;19.26;46.05;101315.53;5054357;28;45252;-76
2023/12/22 16:15:31;;;;;;;;;2.50;1.00;;;;;19.60;45.21;101313.94;5052599;28;45203;-75
2023/12/22 16:17:57;;;;;;;;;4.00;2.00;;;;;19.72;44.61;101323.03;5054419;28;45385;-77
2023/12/22 16:20:22;;;;;;;;;1.75;0.50;;;;;19.41;45.64;101312.66;5035603;28;52953;-75
2023/12/22 16:22:47;;;;;;;;;1.50;1.50;;;;;18.98;46.21;101298.59;5049771;28;51948;-81
2023/12/22 16:25:13;;;;;;;;;4.00;3.00;;;;;19.13;45.98;101298.38;5051288;28;46084;-79
2023/12/22 16:27:38;;;;;;;;;1.50;1.50;;;;;19.47;45.67;101309.50;5053664;28;45924;-76
2023/12/22 16:30:04;;;;;;;;;2.25;2.00;;;;;19.51;45.73;101305.59;5053971;28;51600;-75
2023/12/22 16:32:29;;;;;;;;;2.00;2.00;;;;;19.76;45.31;101291.00;5056082;28;45434;-76
2023/12/22 16:34:55;;;;;;;;;6.25;2.75;;;;;19.80;44.76;101290.69;5055218;28;47568;-77
2023/12/22 16:37:20;;;;;;;;;2.00;2.00;;;;;19.74;44.93;101307.44;5037330;28;46007;-78
2023/12/22 16:39:50;;;;;;;;;5.25;3.00;;;;;19.83;44.74;101298.59;5054202;28;46262;-76
2023/12/22 16:42:16;;;;;;;;;0.00;0.00;;;;;19.59;44.64;101314.03;5045287;28;45740;-79
2023/12/22 16:44:41;;;;;;;;;2.25;1.50;;;;;19.61;44.75;101302.06;5033217;28;45470;-78
2023/12/22 16:47:07;;;;;;;;;5.50;2.25;;;;;19.44;44.91;101282.53;5023837;28;45667;-76
2023/12/22 16:49:35;;;;;;;;;2.00;1.25;;;;;19.69;44.40;101295.19;5054834;28;46018;-76
2023/12/22 16:52:00;;;;;;;;;6.00;1.75;;;;;19.55;45.26;101298.94;5054436;28;45352;-76
2023/12/22 16:54:25;;;;;;;;;2.00;1.00;;;;;19.79;44.39;101313.44;5054413;28;45390;-77
2023/12/22 16:56:51;;;;;;;;;1.00;1.00;;;;;19.35;44.95;101319.41;5054141;28;47303;-77